Latest Weather Observations for Bunbury

IDW60801

Issued at 10:33 am WST Tuesday 22 September 2020 (issued every 10 minutes, with the page automatically refreshed every 10 minutes)

About weather observations | Map of weather stations | Latest weather observations for WA | Other Formats
Station Details ID: 009965 Name: BUNBURY Lat: -33.36 Lon: 115.64 Height: 5.2 m
Data from the previous 72 hours. | See also: Recent months at Bunbury
Date/Time
WST
Temp
°C
App
Temp
°C
Dew
Point
°C
Rel
Hum
%
Delta-T
°C
Wind Press
QNH
hPa
Press
MSL
hPa
Rain since
9am
mm
Dir  Spd
km/h
Gust
km/h
Spd
kts
Gust
kts
22/10:30am 17.5 16.7 11.1 66 3.4 SSW 6 9 3 5 1024.0 1024.0 0.0
22/10:00am 16.6 15.9 11.3 71 2.8 S 6 11 3 6 1024.2 1024.2 0.0
22/09:30am 15.7 15.3 12.5 81 1.8 SSW 6 13 3 7 1024.2 1024.2 0.0
22/09:00am 14.8 15.1 13.3 91 0.8 SSE 4 9 2 5 1024.1 1024.1 2.8
22/08:30am 14.1 13.4 13.3 95 0.4 SSE 9 13 5 7 1023.9 1023.9 2.8
22/08:00am 13.3 13.4 12.7 96 0.3 SSW 4 9 2 5 1023.9 1023.9 2.8
22/07:30am 13.0 13.8 12.5 97 0.3 CALM 0 0 0 0 1023.4 1023.4 2.8
22/07:00am 12.5 13.1 12.0 97 0.3 CALM 0 0 0 0 1022.9 1022.9 2.8
22/06:30am 10.9 11.0 10.3 96 0.3 CALM 0 0 0 0 1022.6 1022.6 2.8
22/06:00am 11.4 11.7 10.8 96 0.3 CALM 0 0 0 0 1022.3 1022.3 2.8
22/05:30am 11.8 12.2 11.2 96 0.3 CALM 0 0 0 0 1022.0 1022.0 2.8
22/05:00am 11.7 12.1 11.1 96 0.3 CALM 0 0 0 0 1021.7 1021.7 2.8
22/04:30am 11.4 11.7 10.8 96 0.3 CALM 0 0 0 0 1021.4 1021.4 2.8
22/04:00am 10.8 10.9 10.0 95 0.4 CALM 0 2 0 1 1021.2 1021.2 2.8
22/03:30am 11.1 11.2 10.3 95 0.4 CALM 0 0 0 0 1021.1 1021.1 2.8
22/03:00am 11.6 11.9 10.8 95 0.4 CALM 0 0 0 0 1021.2 1021.2 2.8
22/02:30am 11.4 11.6 10.5 94 0.5 CALM 0 0 0 0 1021.3 1021.3 2.8
22/02:00am 12.0 12.0 11.1 94 0.5 SE 2 4 1 2 1021.4 1021.4 2.8
22/01:30am 12.3 12.0 11.4 94 0.5 ESE 4 6 2 3 1021.5 1021.5 2.8
22/01:00am 12.5 12.6 11.4 93 0.6 ESE 2 4 1 2 1021.5 1021.5 2.6
22/12:30am 12.5 12.9 11.4 93 0.6 CALM 0 0 0 0 1021.3 1021.3 2.6
22/12:00am 11.8 12.0 10.5 92 0.7 CALM 0 0 0 0 1021.3 1021.3 2.6
 
Date/Time
WST
Temp
°C
App
Temp
°C
Dew
Point
°C
Rel
Hum
%
Delta-T
°C
Wind Press
QNH
hPa
Press
MSL
hPa
Rain since
9am
mm
Dir  Spd
km/h
Gust
km/h
Spd
kts
Gust
kts
21/11:30pm 12.0 12.2 10.4 90 0.8 CALM 0 0 0 0 1021.4 1021.4 2.6
21/11:00pm 12.6 12.1 10.8 89 0.9 S 4 6 2 3 1021.5 1021.5 2.6
21/10:30pm 13.8 12.6 11.7 87 1.1 SW 9 17 5 9 1021.8 1021.8 2.6
21/10:00pm 14.8 13.1 12.5 86 1.3 WSW 13 17 7 9 1021.7 1021.7 0.8
21/09:30pm 14.8 12.9 13.0 89 1.0 WNW 15 24 8 13 1021.8 1021.8 0.8
21/09:00pm 14.1 12.4 12.5 90 0.9 WNW 13 22 7 12 1021.8 1021.8 0.8
21/08:30pm 14.4 12.0 12.6 89 1.0 W 17 28 9 15 1022.1 1022.1 0.8
21/08:00pm 14.0 11.7 11.9 87 1.1 W 15 26 8 14 1022.0 1022.0 0.8
21/07:30pm 14.0 12.8 11.7 86 1.2 W 9 13 5 7 1021.9 1021.9 0.4
21/07:00pm 14.4 11.7 11.7 84 1.4 W 17 24 9 13 1021.7 1021.7 0.4
21/06:30pm 13.8 11.2 10.6 81 1.7 W 15 26 8 14 1021.6 1021.6 0.4
21/06:00pm 15.2 13.2 10.2 72 2.6 W 11 17 6 9 1021.5 1021.5 0.0
21/05:30pm 15.1 13.1 10.1 72 2.6 W 11 17 6 9 1021.5 1021.5 0.0
21/05:00pm 15.5 12.6 9.6 68 3.0 WSW 15 24 8 13 1021.6 1021.6 0.0
21/04:30pm 15.4 12.5 9.5 68 3.0 W 15 20 8 11 1021.5 1021.5 0.0
21/04:00pm 15.7 13.1 9.4 66 3.2 W 13 19 7 10 1021.3 1021.3 0.0
21/03:30pm 16.0 13.0 9.2 64 3.5 W 15 22 8 12 1021.3 1021.3 0.0
21/03:00pm 15.2 13.9 9.8 70 2.8 W 7 13 4 7 1021.3 1021.3 0.0
21/02:30pm 15.2 12.9 10.4 73 2.5 W 13 19 7 10 1021.4 1021.4 0.0
21/02:00pm 13.9 10.0 9.3 74 2.3 SW 20 32 11 17 1021.6 1021.6 0.0
21/01:30pm 14.1 11.4 9.1 72 2.5 W 13 20 7 11 1021.7 1021.7 0.0
21/01:00pm 14.7 12.3 7.0 60 3.7 WNW 9 15 5 8 1021.7 1021.7 0.0
21/12:30pm 16.0 13.7 7.5 57 4.2 W 9 19 5 10 1021.5 1021.5 0.0
21/12:00pm 16.4 14.2 7.9 57 4.3 SW 9 15 5 8 1021.9 1021.9 0.0
21/11:30am 15.7 12.9 7.0 56 4.3 WSW 11 17 6 9 1022.2 1022.2 0.0
21/11:00am 15.5 12.7 6.8 56 4.2 WSW 11 19 6 10 1022.2 1022.2 0.0
21/10:30am 15.0 11.7 6.6 57 4.1 WSW 13 19 7 10 1022.3 1022.3 0.0
21/10:00am 15.1 11.4 6.4 56 4.2 SW 15 20 8 11 1022.3 1022.3 0.0
21/09:30am 14.1 11.5 6.2 59 3.8 SSW 9 13 5 7 1022.3 1022.3 0.0
21/09:00am 14.0 11.2 6.8 62 3.5 SSW 11 17 6 9 1022.4 1022.4 0.2
21/08:30am 13.1 11.0 6.5 64 3.2 SSW 7 11 4 6 1022.2 1022.2 0.2
21/08:00am 12.2 10.2 6.3 67 2.8 SSW 6 9 3 5 1022.0 1022.0 0.2
21/07:30am 11.7 9.7 6.2 69 2.6 S 6 9 3 5 1021.7 1021.7 0.2
21/07:00am 11.3 9.0 5.8 69 2.5 S 7 17 4 9 1021.5 1021.5 0.2
21/06:30am 11.1 8.4 5.8 70 2.5 S 9 15 5 8 1021.3 1021.3 0.2
21/06:00am 11.0 8.3 5.7 70 2.4 SSW 9 20 5 11 1021.1 1021.1 0.2
21/05:30am 10.8 9.1 5.8 71 2.3 SSW 4 6 2 3 1020.9 1020.8 0.2
21/05:00am 11.1 8.4 5.8 70 2.4 SSW 9 13 5 7 1020.7 1020.6 0.2
21/04:30am 11.1 7.6 5.6 69 2.5 SSW 13 20 7 11 1020.5 1020.4 0.2
21/04:00am 11.4 8.4 5.9 69 2.6 SW 11 17 6 9 1020.2 1020.1 0.2
21/03:30am 10.7 8.6 5.9 72 2.2 SSW 6 9 3 5 1020.4 1020.3 0.2
21/03:00am 10.8 8.5 5.8 71 2.3 SSW 7 11 4 6 1020.3 1020.2 0.2
21/02:30am 10.9 8.6 5.7 70 2.4 S 7 13 4 7 1020.3 1020.2 0.2
21/02:00am 11.2 8.2 5.9 70 2.5 SSW 11 15 6 8 1020.3 1020.2 0.2
21/01:30am 11.1 7.0 6.0 71 2.4 SSW 17 28 9 15 1020.4 1020.3 0.2
21/01:00am 11.9 7.5 6.4 69 2.6 SW 19 32 10 17 1020.5 1020.4 0.2
21/12:30am 11.3 8.9 7.0 75 2.0 SW 9 15 5 8 1020.2 1020.1 0.2
21/12:00am 11.1 8.6 6.6 74 2.1 SSW 9 13 5 7 1020.3 1020.2 0.2
 
Date/Time
WST
Temp
°C
App
Temp
°C
Dew
Point
°C
Rel
Hum
%
Delta-T
°C
Wind Press
QNH
hPa
Press
MSL
hPa
Rain since
9am
mm
Dir  Spd
km/h
Gust
km/h
Spd
kts
Gust
kts
20/11:30pm 11.2 8.3 6.7 74 2.1 SSW 11 19 6 10 1020.2 1020.1 0.2
20/11:00pm 11.1 8.4 7.4 78 1.8 SSW 11 17 6 9 1020.2 1020.1 0.2
20/10:30pm 11.0 9.2 7.9 81 1.5 SSW 7 11 4 6 1020.3 1020.2 0.2
20/10:00pm 11.1 8.5 7.6 79 1.7 SW 11 17 6 9 1020.4 1020.3 0.2
20/09:30pm 11.2 7.8 7.5 78 1.8 SSW 15 26 8 14 1020.3 1020.2 0.2
20/09:00pm 11.7 8.3 7.8 77 1.9 SW 15 24 8 13 1020.2 1020.1 0.2
20/08:30pm 10.9 7.2 7.8 81 1.5 SSW 17 24 9 13 1020.2 1020.1 0.2
20/08:00pm 11.6 6.7 7.1 74 2.1 SSW 22 32 12 17 1020.0 1019.9 0.2
20/07:30pm 11.4 6.9 6.9 74 2.1 SW 20 33 11 18 1019.5 1019.4 0.2
20/07:00pm 12.2 7.3 6.9 70 2.5 SW 22 37 12 20 1019.1 1019.0 0.2
20/06:30pm 12.3 7.9 6.4 67 2.8 SSW 19 30 10 16 1018.8 1018.7 0.2
20/06:00pm 12.4 8.0 6.7 68 2.7 SW 19 39 10 21 1018.3 1018.2 0.2
20/05:30pm 12.8 7.9 7.0 68 2.8 SW 22 37 12 20 1017.9 1017.8 0.2
20/05:00pm 12.7 7.8 6.7 67 2.9 SW 22 39 12 21 1017.6 1017.5 0.2
20/04:30pm 11.9 6.3 7.0 72 2.3 WSW 26 44 14 24 1017.6 1017.5 0.2
20/04:00pm 13.1 7.3 6.2 63 3.3 SW 26 39 14 21 1017.1 1017.0 0.2
20/03:37pm 12.4 6.3 6.5 67 2.8 SW 28 48 15 26 1017.1 1017.0 0.2
20/03:30pm 12.9 6.4 6.3 64 3.1 SW 30 48 16 26 1016.9 1016.8 0.2
20/03:28pm 12.9 6.7 6.3 64 3.1 SW 28 48 15 26 1016.8 1016.7 0.2
20/03:00pm 13.4 6.9 6.3 62 3.4 SSW 30 44 16 24 1016.4 1016.3 0.2
20/02:40pm 14.6 7.5 5.4 54 4.3 SW 32 52 17 28 1016.2 1016.1 0.2
20/02:30pm 14.9 8.5 5.1 52 4.6 SW 28 44 15 24 1016.0 1015.9 0.2
20/02:05pm 14.9 8.5 5.1 52 4.6 SW 28 46 15 25 1015.9 1015.8 0.2
20/02:00pm 15.1 8.6 6.4 56 4.2 SW 30 46 16 25 1015.8 1015.7 0.2
20/01:35pm 15.2 8.8 5.4 52 4.6 SW 28 48 15 26 1015.6 1015.5 0.2
20/01:30pm 15.1 9.1 7.2 59 3.9 SW 28 43 15 23 1015.6 1015.5 0.0
20/01:01pm 14.4 6.7 5.5 55 4.2 SW 35 57 19 31 1015.7 1015.6 0.0
20/01:00pm 14.4 7.0 5.2 54 4.3 SW 33 48 18 26 1015.6 1015.5 0.0
20/12:30pm 13.4 7.8 7.2 66 3.0 WSW 26 46 14 25 1015.6 1015.5 0.0
20/12:05pm 15.8 9.3 6.3 53 4.6 SW 30 50 16 27 1015.3 1015.2 0.0
20/12:00pm 15.0 7.7 4.4 49 4.9 SW 32 48 17 26 1015.3 1015.2 0.0
20/11:42am 14.8 7.5 4.5 50 4.8 SW 32 52 17 28 1015.3 1015.2 0.0
20/11:30am 15.4 8.6 5.3 51 4.8 SW 30 46 16 25 1015.1 1015.0 0.0
20/11:00am 11.4 3.9 6.5 72 2.3 SW 35 59 19 32 1015.2 1015.1 0.0
20/10:30am 14.1 6.6 3.6 49 4.8 SW 32 50 17 27 1014.9 1014.8 0.0
20/10:10am 14.2 6.6 3.9 50 4.7 SW 33 61 18 33 1014.8 1014.7 0.0
20/10:00am 13.7 6.8 4.6 54 4.2 SW 30 48 16 26 1014.7 1014.6 0.0
20/09:33am 13.1 5.9 5.0 58 3.7 SW 32 52 17 28 1014.5 1014.4 0.0
20/09:30am 13.6 7.0 6.0 60 3.6 SW 30 48 16 26 1014.4 1014.3 0.0
20/09:00am 11.9 5.2 5.5 65 3.0 SW 30 50 16 27 1014.3 1014.2 5.4
20/08:30am 10.5 3.3 5.9 73 2.1 WSW 33 65 18 35 1014.0 1013.9 5.4
20/08:18am 12.7 6.1 4.4 57 3.8 SW 28 46 15 25 1013.5 1013.5 5.2
20/08:00am 11.4 5.4 5.3 66 2.8 SW 26 43 14 23 1013.3 1013.3 5.2
20/07:45am 12.2 5.7 4.7 60 3.4 SW 28 48 15 26 1013.1 1013.1 5.2
20/07:30am 11.8 4.4 4.1 59 3.5 SW 32 50 17 27 1012.9 1012.9 5.2
20/07:18am 12.4 5.8 4.4 58 3.6 SW 28 48 15 26 1012.7 1012.7 5.2
20/07:00am 11.4 5.2 4.2 61 3.2 SW 26 39 14 21 1012.3 1012.3 5.2
20/06:30am 11.5 4.2 4.5 62 3.2 SW 32 52 17 28 1012.0 1012.0 5.2
20/06:12am 11.8 4.7 3.6 57 3.6 SW 30 50 16 27 1011.7 1011.7 5.2
20/06:00am 11.8 4.0 2.0 51 4.2 SW 32 48 17 26 1011.6 1011.6 5.2
20/05:33am 11.7 5.0 3.5 57 3.6 SW 28 52 15 28 1011.3 1011.3 5.2
20/05:30am 11.7 5.7 3.5 57 3.6 SW 24 52 13 28 1011.3 1011.3 5.2
20/05:06am 11.8 4.7 3.8 58 3.6 SW 30 50 16 27 1011.2 1011.2 5.2
20/05:00am 11.6 5.1 4.6 62 3.2 SW 28 41 15 22 1011.1 1011.1 5.2
20/04:30am 10.6 3.2 4.1 64 2.9 WSW 32 54 17 29 1011.0 1011.0 5.2
20/04:00am 11.0 3.1 4.5 64 2.9 SW 35 57 19 31 1011.1 1011.1 5.2
20/03:33am 11.4 4.2 2.9 56 3.7 WSW 30 50 16 27 1010.7 1010.7 5.2
20/03:30am 11.5 4.3 2.8 55 3.8 SW 30 46 16 25 1010.7 1010.7 5.2
20/03:00am 11.0 3.6 4.0 62 3.1 WSW 32 54 17 29 1010.8 1010.8 5.2
20/02:52am 11.1 4.2 4.6 64 2.9 SW 30 48 16 26 1010.8 1010.8 5.2
20/02:30am 10.8 4.3 4.5 65 2.8 WSW 28 41 15 22 1010.8 1010.8 5.0
20/02:18am 10.6 4.1 4.5 66 2.7 SW 28 48 15 26 1010.9 1010.9 5.0
20/02:00am 9.9 3.7 4.1 67 2.6 SW 26 43 14 23 1011.0 1011.0 5.0
20/01:46am 10.7 3.8 4.8 67 2.7 SW 30 52 16 28 1011.0 1011.0 5.0
20/01:30am 10.6 3.8 4.9 68 2.6 WSW 30 46 16 25 1011.1 1011.1 5.0
20/01:00am 9.3 1.8 4.5 72 2.1 SW 33 59 18 32 1011.5 1011.5 5.0
20/12:35am 11.4 4.7 3.4 58 3.5 WSW 28 52 15 28 1011.0 1011.0 4.6
20/12:30am 11.3 5.2 4.7 64 3.0 WSW 26 44 14 24 1010.9 1010.9 4.6
20/12:00am 10.7 5.0 4.8 67 2.7 SW 24 33 13 18 1010.9 1010.9 4.6
 
Date/Time
WST
Temp
°C
App
Temp
°C
Dew
Point
°C
Rel
Hum
%
Delta-T
°C
Wind Press
QNH
hPa
Press
MSL
hPa
Rain since
9am
mm
Dir  Spd
km/h
Gust
km/h
Spd
kts
Gust
kts
19/11:35pm 9.7 3.2 4.5 70 2.3 SW 28 48 15 26 1011.3 1011.3 4.6
19/11:30pm 9.9 2.3 3.9 66 2.6 SW 33 56 18 30 1011.5 1011.5 4.6
19/11:00pm 11.3 4.6 3.6 59 3.4 WSW 28 50 15 27 1011.2 1011.2 4.6
19/10:48pm 11.2 4.2 2.2 54 3.8 WSW 28 50 15 27 1011.2 1011.2 4.6
19/10:30pm 10.6 4.3 3.6 62 3.1 WSW 26 44 14 24 1011.4 1011.4 4.6
19/10:02pm 10.1 3.4 3.8 65 2.8 WSW 28 50 15 27 1011.5 1011.5 4.6
19/10:00pm 9.9 3.6 3.9 66 2.6 WSW 26 44 14 24 1011.5 1011.5 4.6
19/09:36pm 10.8 3.7 3.8 62 3.1 WSW 30 50 16 27 1011.3 1011.3 4.6
19/09:30pm 10.3 4.0 4.0 65 2.8 WSW 26 44 14 24 1011.4 1011.4 4.6
19/09:03pm 9.9 3.4 4.7 70 2.3 WSW 28 46 15 25 1011.3 1011.3 4.6
19/09:00pm 9.6 3.8 4.6 71 2.2 WSW 24 39 13 21 1011.3 1011.3 4.6
19/08:30pm 8.7 1.2 3.5 70 2.2 WSW 32 67 17 36 1011.6 1011.6 4.4
19/08:26pm 10.7 4.1 4.4 65 2.8 WSW 28 59 15 32 1011.1 1011.1 3.6
19/08:00pm 9.6 3.9 5.0 73 2.1 SW 24 39 13 21 1011.1 1011.1 3.6
19/07:30pm 8.3 1.6 5.6 83 1.2 SW 30 52 16 28 1010.8 1010.8 3.6
19/07:18pm 9.6 2.3 5.4 75 1.9 WSW 33 69 18 37 1010.8 1010.8 3.4
19/07:16pm 10.1 3.8 5.5 73 2.1 WSW 28 54 15 29 1010.6 1010.6 3.4
19/07:00pm 9.8 5.2 5.6 75 1.9 SW 19 28 10 15 1010.2 1010.2 3.4
19/06:31pm 10.8 3.7 5.3 69 2.5 SW 32 67 17 36 1010.1 1010.1 3.0
19/06:30pm 10.7 3.9 5.3 69 2.5 SW 30 48 16 26 1009.8 1009.8 3.0
19/06:00pm 10.5 5.8 6.1 74 2.0 WSW 20 33 11 18 1009.6 1009.6 3.0
19/05:31pm 10.5 4.2 5.9 73 2.1 WSW 28 52 15 28 1009.6 1009.6 3.0
19/05:30pm 11.1 5.6 6.0 71 2.4 WSW 24 44 13 24 1009.6 1009.6 3.0
19/05:05pm 11.3 4.3 6.2 71 2.4 SW 32 50 17 27 1008.9 1008.9 3.0
19/05:00pm 11.3 4.1 5.8 69 2.6 SW 33 50 18 27 1008.9 1008.9 3.0
19/04:30pm 11.5 5.6 7.4 76 2.0 SW 28 46 15 25 1008.4 1008.4 3.0
19/04:23pm 11.7 4.3 6.6 71 2.4 WSW 35 56 19 30 1008.4 1008.4 3.0
19/04:20pm 12.0 4.6 6.7 70 2.5 WSW 35 56 19 30 1008.2 1008.2 3.0
19/04:10pm 11.1 5.1 7.2 77 1.9 W 28 59 15 32 1008.1 1008.1 3.0
19/04:00pm 10.7 6.4 7.9 83 1.4 W 20 32 11 17 1008.1 1008.1 2.8
19/03:37pm 11.7 5.6 6.4 70 2.5 W 28 46 15 25 1008.2 1008.2 2.0
19/03:30pm 12.1 5.3 7.0 71 2.4 W 32 46 17 25 1007.9 1007.9 2.0
19/03:02pm 10.0 3.9 6.5 79 1.6 WSW 28 57 15 31 1007.9 1007.9 2.0
19/03:00pm 9.4 3.4 5.2 75 1.9 WSW 26 57 14 31 1007.9 1007.9 2.0
19/02:30pm 11.5 7.1 7.4 76 2.0 WSW 20 32 11 17 1007.9 1007.9 1.0
19/02:00pm 11.0 4.1 7.3 78 1.8 WSW 33 52 18 28 1008.0 1008.0 1.0
19/01:30pm 11.5 4.4 6.4 71 2.4 W 33 61 18 33 1007.7 1007.7 0.4
19/01:04pm 15.5 8.7 6.8 56 4.3 W 32 52 17 28 1007.1 1007.1 0.2
19/01:00pm 15.2 8.4 7.0 58 4.0 W 32 46 17 25 1007.0 1007.0 0.2
19/12:30pm 14.8 11.1 10.0 73 2.5 W 20 35 11 19 1007.2 1007.2 0.2
19/12:12pm 13.8 7.7 8.2 69 2.8 W 30 61 16 33 1007.6 1007.6 0.0
19/12:00pm 15.6 10.7 8.4 62 3.7 W 24 46 13 25 1007.5 1007.5 0.0
19/11:33am 15.3 9.4 7.3 59 4.0 W 28 48 15 26 1007.7 1007.7 0.0
19/11:30am 15.9 10.1 7.9 59 4.0 W 28 43 15 23 1007.6 1007.6 0.0
19/11:00am 12.9 6.8 8.4 74 2.2 WSW 30 50 16 27 1008.1 1008.1 0.0
19/10:47am 15.4 9.5 7.4 59 4.0 W 28 61 15 33 1008.0 1008.0 0.0

Other formats

Comma delimited format used in spreadsheet applications
http://www.bom.gov.au/fwo/IDW60801/IDW60801.94604.axf

JavaScript Object Notation format (JSON) in row-major order
http://www.bom.gov.au/fwo/IDW60801/IDW60801.94604.json

Data quality

Most of these data are generated automatically and are frequently updated. Quality checks on data are not normally performed. It is possible for incorrect values to appear. Refer to information at About Latest Weather Observations and please check the disclaimer before using these data.